Time;durP1;ratioP1;P1;durP2;ratioP2;P2;SDS_P1;SDS_P2;PMS_P1;PMS_P2;Temp;Humidity;BMP_temperature;BMP_pressure;BME280_temperature;BME280_humidity;BME280_pressure;Samples;Min_cycle;Max_cycle;Signal;HPM_P1;HPM_P2
2023/12/03 00:00:16;;;;;;;10.47;6.93;;;-2.80;79.70;;;-0.71;57.99;97986.09;5011097;28;20053;-61
2023/12/03 00:02:44;;;;;;;11.77;7.50;;;-2.80;79.10;;;-0.69;58.47;97987.69;5010066;28;20053;-61
2023/12/03 00:05:12;;;;;;;12.73;7.03;;;-2.80;80.30;;;-0.72;57.93;97984.38;5010788;28;20521;-61
2023/12/03 00:07:40;;;;;;;11.80;6.90;;;-2.80;78.80;;;-0.72;58.01;97987.84;5011123;28;20105;-61
2023/12/03 00:10:08;;;;;;;13.73;7.17;;;-2.80;78.60;;;-0.71;58.04;97986.94;5009658;28;20415;-61
2023/12/03 00:12:38;;;;;;;12.83;7.50;;;-2.80;79.20;;;-0.83;58.39;97987.59;5010974;28;20411;-61
2023/12/03 00:15:07;;;;;;;13.57;7.23;;;-2.80;78.80;;;-0.81;57.65;97986.59;5010835;28;20046;-60
2023/12/03 00:17:35;;;;;;;13.87;7.50;;;-2.90;79.00;;;-0.76;58.27;97986.31;5010971;28;20046;-60
2023/12/03 00:20:04;;;;;;;12.63;6.97;;;-2.90;79.90;;;-0.78;57.53;97985.56;5011006;28;20511;-60
2023/12/03 00:22:31;;;;;;;14.00;6.93;;;-2.80;78.40;;;-0.81;58.31;97991.81;5009579;28;20527;-61
2023/12/03 00:24:59;;;;;;;13.80;7.93;;;-2.90;78.30;;;-0.78;58.07;97992.56;5010697;28;20518;-60
2023/12/03 00:27:27;;;;;;;12.70;7.33;;;-2.80;79.30;;;-0.92;57.55;97996.75;5010811;28;20077;-60
2023/12/03 00:29:55;;;;;;;13.70;6.67;;;-2.90;77.60;;;-0.98;57.54;97989.25;5009547;28;20057;-60
2023/12/03 00:32:22;;;;;;;13.30;7.30;;;-2.90;78.30;;;-0.88;57.85;97995.66;5010383;28;20065;-60
2023/12/03 00:34:50;;;;;;;13.03;7.73;;;-2.80;78.70;;;-0.83;57.69;97998.91;5002754;28;20419;-60
2023/12/03 00:37:18;;;;;;;14.23;7.00;;;-2.80;79.40;;;-0.83;58.32;98004.13;5009863;28;20050;-60
2023/12/03 00:39:45;;;;;;;11.20;6.97;;;-2.80;78.20;;;-0.82;58.42;98004.97;5010672;28;20053;-60
2023/12/03 00:42:13;;;;;;;13.67;7.97;;;-2.90;79.20;;;-0.81;58.01;97996.19;5010866;28;20053;-61
2023/12/03 00:44:41;;;;;;;14.10;8.37;;;-2.80;79.70;;;-0.73;57.84;97998.41;5010231;28;20448;-61
2023/12/03 00:47:09;;;;;;;12.27;8.03;;;-2.80;79.30;;;-0.87;58.48;98002.59;5010798;28;20042;-61
2023/12/03 00:49:36;;;;;;;12.47;6.50;;;-2.80;79.40;;;-0.85;58.02;97998.13;5009844;28;20049;-61
2023/12/03 00:52:08;;;;;;;12.70;7.13;;;-2.80;79.60;;;-0.86;58.52;98000.81;5011143;28;20050;-61
2023/12/03 00:54:35;;;;;;;15.37;7.77;;;-2.90;79.60;;;-0.80;58.38;98010.94;5010151;28;20483;-61
2023/12/03 00:57:03;;;;;;;14.77;8.40;;;-2.80;80.80;;;-0.76;58.36;97993.34;5010733;28;20615;-61
2023/12/03 00:59:31;;;;;;;13.83;8.30;;;-2.80;80.30;;;-0.75;58.75;98003.72;5010706;28;20053;-61
2023/12/03 01:01:58;;;;;;;18.47;8.43;;;-2.80;80.10;;;-0.78;57.85;98001.25;5010746;28;20045;-61
2023/12/03 01:04:26;;;;;;;14.97;9.00;;;-2.80;80.50;;;-0.89;58.31;98007.06;5010478;28;20057;-61
2023/12/03 01:06:54;;;;;;;14.80;8.20;;;-2.90;79.90;;;-0.84;58.52;98001.59;5010560;28;20408;-61
2023/12/03 01:09:21;;;;;;;17.40;8.73;;;-2.90;79.70;;;-0.86;58.59;98001.66;5010611;28;20042;-61
2023/12/03 01:11:51;;;;;;;13.97;8.57;;;-2.90;80.20;;;-0.87;58.69;98001.75;5010230;28;20414;-61
2023/12/03 01:14:19;;;;;;;14.27;7.97;;;-2.90;80.00;;;-0.80;58.92;98008.34;5010507;28;20046;-61
2023/12/03 01:16:47;;;;;;;16.13;8.33;;;-2.80;80.80;;;-0.72;58.63;98008.75;5010417;28;20046;-61
2023/12/03 01:19:14;;;;;;;13.97;7.47;;;-2.80;81.10;;;-0.71;58.66;98010.47;5010650;28;20049;-62
2023/12/03 01:21:42;;;;;;;16.17;8.53;;;-2.80;80.80;;;-0.70;57.98;98024.38;5010003;28;20424;-61
2023/12/03 01:24:10;;;;;;;12.60;7.10;;;-2.80;80.70;;;-0.80;58.21;98031.84;5012539;28;20045;-60
2023/12/03 01:26:37;;;;;;;14.17;7.57;;;-2.90;80.50;;;-0.75;58.72;98036.88;5013835;28;20415;-60
2023/12/03 01:29:05;;;;;;;17.67;8.73;;;-2.80;80.60;;;-0.73;58.13;98037.63;5014072;28;20045;-61
2023/12/03 01:31:33;;;;;;;14.13;7.53;;;-2.80;81.20;;;-0.67;58.85;98045.16;5013944;28;20496;-61
2023/12/03 01:34:00;;;;;;;14.97;8.20;;;-2.80;81.00;;;-0.70;58.97;98046.16;5013826;28;20580;-60
2023/12/03 01:36:28;;;;;;;16.50;9.10;;;-2.80;80.90;;;-0.63;58.30;98050.13;5013339;28;20068;-61
2023/12/03 01:38:56;;;;;;;15.20;8.70;;;-2.80;81.40;;;-0.58;58.83;98052.50;5005799;28;20057;-61
2023/12/03 01:41:24;;;;;;;14.43;7.90;;;-2.70;81.30;;;-0.59;58.82;98056.03;5013661;28;20057;-61
2023/12/03 01:43:53;;;;;;;15.47;8.67;;;-2.70;80.70;;;-0.61;58.18;98061.34;5013662;28;20381;-60
2023/12/03 01:46:21;;;;;;;15.23;8.47;;;-2.80;80.30;;;-0.58;58.62;98067.34;5010542;28;20049;-61
2023/12/03 01:48:50;;;;;;;18.80;8.80;;;-2.70;81.70;;;-0.53;58.30;98071.41;5012189;28;20049;-61
2023/12/03 01:51:19;;;;;;;15.90;8.57;;;-2.70;81.50;;;-0.50;57.99;98068.63;5012566;28;20042;-61
2023/12/03 01:53:49;;;;;;;17.07;9.20;;;-2.60;80.30;;;-0.51;58.21;98066.09;5012579;28;20065;-61
2023/12/03 01:56:16;;;;;;;14.27;8.43;;;-2.70;80.20;;;-0.53;58.33;98078.41;5013321;28;20496;-61
2023/12/03 01:58:45;;;;;;;17.73;8.87;;;-2.70;81.20;;;-0.53;58.56;98076.63;5011986;28;20053;-61
2023/12/03 02:01:12;;;;;;;15.97;8.73;;;-2.70;81.30;;;-0.48;57.86;98074.63;5013231;28;20056;-61
2023/12/03 02:03:40;;;;;;;17.17;8.00;;;-2.70;80.90;;;-0.46;58.60;98078.00;5013113;28;20511;-60
2023/12/03 02:06:09;;;;;;;15.23;7.47;;;-2.60;80.70;;;-0.46;58.36;98077.16;5012965;28;20503;-60
2023/12/03 02:08:38;;;;;;;16.43;7.93;;;-2.60;80.50;;;-0.44;58.46;98072.69;5012854;28;20064;-61
2023/12/03 02:11:07;;;;;;;16.07;7.97;;;-2.60;80.80;;;-0.46;57.58;98075.38;5013183;28;20049;-60
2023/12/03 02:13:37;;;;;;;17.50;9.67;;;-2.60;80.00;;;-0.44;58.49;98073.53;5013111;28;20423;-60
2023/12/03 02:16:06;;;;;;;15.83;8.53;;;-2.60;79.40;;;-0.48;57.62;98079.03;5011237;28;20045;-61
2023/12/03 02:18:34;;;;;;;17.53;8.87;;;-2.60;78.80;;;-0.48;57.60;98079.84;5013076;28;20523;-60
2023/12/03 02:21:02;;;;;;;16.13;8.33;;;-2.70;79.70;;;-0.47;58.41;98085.91;5012119;28;20050;-61
2023/12/03 02:23:31;;;;;;;15.40;8.03;;;-2.70;79.90;;;-0.48;57.98;98082.47;5013730;28;20499;-61
2023/12/03 02:25:59;;;;;;;12.30;7.33;;;-2.70;79.30;;;-0.47;58.26;98088.53;5011407;28;20053;-60
2023/12/03 02:28:26;;;;;;;13.73;8.60;;;-2.70;78.70;;;-0.49;57.40;98077.31;5012802;28;20050;-61
2023/12/03 02:30:54;;;;;;;16.00;8.03;;;-2.70;80.10;;;-0.48;57.94;98086.88;5011457;28;20054;-61
2023/12/03 02:33:22;;;;;;;16.23;8.07;;;-2.70;79.00;;;-0.49;57.19;98080.75;5012670;28;20053;-60
2023/12/03 02:35:50;;;;;;;14.90;7.10;;;-2.70;78.50;;;-0.47;57.90;98085.91;5010180;28;20060;-60
2023/12/03 02:38:17;;;;;;;17.03;8.60;;;-2.70;78.20;;;-0.50;57.64;98089.56;5012598;28;20492;-61
2023/12/03 02:40:45;;;;;;;13.07;7.87;;;-2.70;79.20;;;-0.54;57.37;98095.88;5012474;28;20427;-61
2023/12/03 02:43:12;;;;;;;12.17;7.70;;;-2.70;79.70;;;-0.64;57.70;98094.66;5012501;28;20052;-61
2023/12/03 02:45:40;;;;;;;16.20;7.17;;;-2.80;78.10;;;-0.66;57.26;98092.13;5012041;28;20537;-60
2023/12/03 02:48:08;;;;;;;15.47;8.27;;;-2.90;78.40;;;-0.65;57.32;98101.66;5011317;28;20418;-61
2023/12/03 02:50:36;;;;;;;11.20;6.87;;;-2.80;78.60;;;-0.64;57.29;98103.38;5011571;28;20395;-61
2023/12/03 02:53:03;;;;;;;13.37;7.73;;;-2.80;78.40;;;-0.65;57.07;98093.81;5012308;28;20139;-60
2023/12/03 02:55:31;;;;;;;14.57;7.77;;;-2.80;79.20;;;-0.67;57.15;98092.22;5012118;28;20049;-61
2023/12/03 02:57:59;;;;;;;16.97;8.40;;;-2.80;78.80;;;-0.71;58.01;98091.53;5011851;28;20045;-61
2023/12/03 03:00:27;;;;;;;15.20;8.07;;;-2.80;79.80;;;-0.67;57.90;98093.03;5012167;28;20041;-61
2023/12/03 03:02:55;;;;;;;17.67;9.07;;;-2.80;78.80;;;-0.81;57.07;98103.41;5012130;28;20052;-60
2023/12/03 03:05:22;;;;;;;17.67;9.33;;;-2.90;79.10;;;-0.86;57.13;98103.59;5011609;28;20423;-61
2023/12/03 03:07:50;;;;;;;14.07;7.20;;;-2.90;76.50;;;-0.85;57.52;98109.72;5010918;28;20042;-60
2023/12/03 03:10:17;;;;;;;14.20;7.23;;;-2.90;77.10;;;-0.80;56.90;98113.75;5012165;28;20041;-61
2023/12/03 03:12:45;;;;;;;13.87;7.67;;;-2.90;76.30;;;-0.76;56.52;98109.22;5012173;28;20434;-61
2023/12/03 03:15:13;;;;;;;12.27;6.43;;;-2.90;76.90;;;-0.75;57.13;98110.06;5011839;28;20038;-60
2023/12/03 03:17:41;;;;;;;14.97;7.40;;;-2.90;77.30;;;-0.71;57.49;98104.59;5011697;28;20046;-61
2023/12/03 03:20:09;;;;;;;13.10;7.17;;;-2.90;77.30;;;-0.67;57.71;98111.34;5011903;28;20411;-60
2023/12/03 03:22:36;;;;;;;15.63;9.63;;;-2.80;78.60;;;-0.64;57.66;98105.09;5011877;28;20492;-61
2023/12/03 03:25:05;;;;;;;15.90;8.53;;;-2.80;78.90;;;-0.58;57.21;98104.81;5011500;28;20056;-61
2023/12/03 03:27:33;;;;;;;18.97;10.07;;;-2.80;78.80;;;-0.57;56.96;98103.88;5011341;28;20499;-61
2023/12/03 03:30:00;;;;;;;17.70;8.10;;;-2.80;79.00;;;-0.55;57.50;98109.03;5011555;28;20073;-61
2023/12/03 03:32:28;;;;;;;14.27;7.87;;;-2.80;79.30;;;-0.52;57.02;98108.88;5011541;28;20045;-61
2023/12/03 03:34:56;;;;;;;14.20;7.87;;;-2.80;79.10;;;-0.54;57.04;98111.56;5011375;28;20034;-61
2023/12/03 03:37:23;;;;;;;10.47;6.40;;;-2.80;78.80;;;-0.53;56.84;98109.78;5011621;28;20086;-61
2023/12/03 03:39:52;;;;;;;12.17;7.50;;;-2.80;78.80;;;-0.55;56.88;98115.09;5011281;28;20427;-61
2023/12/03 03:42:20;;;;;;;14.20;7.63;;;-2.80;80.30;;;-0.57;57.75;98116.94;5011506;28;20042;-61
2023/12/03 03:44:49;;;;;;;11.40;6.67;;;-2.80;80.00;;;-0.56;57.81;98117.78;5011174;28;20492;-61
2023/12/03 03:47:16;;;;;;;12.77;7.40;;;-2.80;79.70;;;-0.59;57.34;98110.97;5011007;28;20049;-61
2023/12/03 03:49:44;;;;;;;13.13;7.33;;;-2.90;78.90;;;-0.56;57.69;98116.03;5010400;28;20053;-61
2023/12/03 03:52:12;;;;;;;12.90;7.27;;;-2.80;79.50;;;-0.56;57.31;98117.78;5011217;28;20041;-60
2023/12/03 03:54:41;;;;;;;13.57;6.83;;;-2.80;79.30;;;-0.64;57.41;98120.81;5011066;28;20037;-60
2023/12/03 03:57:09;;;;;;;12.40;7.13;;;-3.00;79.30;;;-0.71;57.69;98125.53;5003451;28;20037;-51
2023/12/03 03:59:36;;;;;;;12.00;6.90;;;-3.00;79.90;;;-0.72;57.68;98125.59;5011298;28;20052;-52
2023/12/03 04:02:04;;;;;;;13.57;6.73;;;-3.00;80.20;;;-0.70;57.75;98123.75;5010272;28;20062;-49
2023/12/03 04:04:32;;;;;;;11.17;6.60;;;-3.00;80.30;;;-0.72;56.95;98122.97;5009858;28;20053;-51
2023/12/03 04:07:00;;;;;;;12.67;7.17;;;-3.00;80.00;;;-0.74;57.12;98133.50;5010909;28;20057;-49
2023/12/03 04:09:27;;;;;;;12.97;6.77;;;-3.00;79.50;;;-0.74;57.28;98128.28;5009957;28;20053;-49
2023/12/03 04:11:55;;;;;;;14.57;7.07;;;-3.00;79.50;;;-0.71;57.53;98127.28;5011148;28;20049;-49
2023/12/03 04:14:23;;;;;;;11.13;6.60;;;-3.00;79.00;;;-0.70;57.33;98129.84;5011090;28;20030;-49
2023/12/03 04:16:50;;;;;;;13.13;6.33;;;-2.90;78.10;;;-0.69;57.32;98134.13;5010594;28;20042;-52
2023/12/03 04:19:18;;;;;;;11.13;6.40;;;-3.00;78.00;;;-0.67;57.09;98140.13;5011264;28;20049;-50
2023/12/03 04:21:47;;;;;;;12.87;6.53;;;-2.90;78.40;;;-0.63;56.78;98143.44;5010682;28;20050;-52
2023/12/03 04:24:15;;;;;;;13.43;6.37;;;-2.90;77.70;;;-0.66;56.98;98141.81;5011195;28;20052;-47
2023/12/03 04:26:43;;;;;;;11.47;7.50;;;-2.80;77.60;;;-0.67;56.71;98137.50;5010744;28;20050;-52
2023/12/03 04:29:12;;;;;;;10.97;6.17;;;-2.90;77.90;;;-0.66;57.27;98140.97;5011511;28;20045;-52
2023/12/03 04:31:39;;;;;;;13.90;7.00;;;-3.00;77.90;;;-0.65;56.57;98140.06;5011261;28;20038;-49
2023/12/03 04:34:07;;;;;;;14.50;7.53;;;-2.90;78.60;;;-0.62;56.60;98138.13;5011104;28;20534;-49
2023/12/03 04:36:35;;;;;;;13.00;7.00;;;-2.80;78.60;;;-0.64;56.73;98134.75;5010635;28;20037;-50
2023/12/03 04:39:04;;;;;;;12.07;6.37;;;-2.90;78.30;;;-0.64;56.64;98144.34;5010613;28;20042;-51
2023/12/03 04:41:37;;;;;;;11.00;6.53;;;-2.90;78.60;;;-0.65;57.02;98142.66;5010871;28;20046;-48
2023/12/03 04:44:05;;;;;;;11.70;6.90;;;-3.00;78.70;;;-0.71;56.51;98141.22;5010983;28;20514;-49
2023/12/03 04:46:33;;;;;;;11.33;6.40;;;-3.00;79.20;;;-0.74;56.77;98137.91;5007590;28;20388;-51
2023/12/03 04:49:01;;;;;;;13.63;6.90;;;-3.10;78.70;;;-0.81;56.36;98142.59;5010458;28;20045;-51
2023/12/03 04:51:29;;;;;;;12.67;7.03;;;-3.20;78.80;;;-0.85;56.62;98138.47;5010512;28;20042;-50
2023/12/03 04:53:56;;;;;;;14.23;7.40;;;-3.20;79.10;;;-0.90;57.00;98143.06;5009487;28;20054;-49
2023/12/03 04:56:24;;;;;;;11.50;6.43;;;-3.30;78.80;;;-1.01;56.79;98144.47;5010497;28;20034;-49
2023/12/03 04:58:51;;;;;;;14.23;7.13;;;-3.40;78.10;;;-1.16;55.98;98146.97;5012715;28;20042;-61
2023/12/03 05:01:19;;;;;;;15.87;7.37;;;-3.60;78.90;;;-1.29;56.38;98157.19;5014444;28;20042;-61
2023/12/03 05:03:47;;;;;;;11.27;6.97;;;-3.80;79.10;;;-1.42;56.54;98152.53;5014405;28;20518;-61
2023/12/03 05:06:15;;;;;;;11.90;7.13;;;-3.90;80.30;;;-1.46;56.56;98150.16;5006033;28;20061;-61
2023/12/03 05:08:43;;;;;;;13.77;7.60;;;-3.90;80.50;;;-1.48;57.21;98150.25;5014274;28;20050;-61
2023/12/03 05:11:10;;;;;;;12.77;7.47;;;-3.90;80.80;;;-1.53;56.54;98149.63;5014161;28;20391;-61
2023/12/03 05:13:38;;;;;;;12.53;6.40;;;-4.00;80.20;;;-1.58;56.91;98147.22;5014276;28;20053;-61
2023/12/03 05:16:06;;;;;;;11.80;7.03;;;-4.10;81.00;;;-1.65;57.10;98151.06;5012859;28;20419;-60
2023/12/03 05:18:34;;;;;;;12.57;6.53;;;-4.10;80.80;;;-1.71;56.35;98148.72;5013770;28;20050;-60
2023/12/03 05:21:03;;;;;;;14.67;7.70;;;-4.20;81.20;;;-1.76;56.62;98150.72;5013772;28;20492;-62
2023/12/03 05:23:31;;;;;;;14.00;7.10;;;-4.20;81.30;;;-1.84;57.13;98148.47;5014340;28;20057;-62
2023/12/03 05:25:58;;;;;;;11.53;6.80;;;-4.30;81.60;;;-1.89;57.24;98147.81;5013861;28;20053;-62
2023/12/03 05:28:26;;;;;;;12.33;7.17;;;-4.30;82.40;;;-1.95;57.14;98157.72;5012877;28;20495;-62
2023/12/03 05:30:54;;;;;;;13.80;7.30;;;-4.30;83.00;;;-1.97;57.12;98160.38;5013653;28;20094;-62
2023/12/03 05:33:22;;;;;;;13.60;7.47;;;-4.40;82.60;;;-2.03;57.10;98158.91;5013741;28;20046;-62
2023/12/03 05:35:50;;;;;;;13.23;7.17;;;-4.40;82.50;;;-2.02;57.47;98160.59;5013750;28;20042;-62
2023/12/03 05:38:18;;;;;;;14.47;7.30;;;-4.40;82.90;;;-2.02;57.49;98152.75;5013940;28;20046;-62
2023/12/03 05:40:46;;;;;;;11.43;7.07;;;-4.30;82.80;;;-2.01;57.25;98156.22;5012344;28;20423;-62
2023/12/03 05:43:15;;;;;;;14.03;7.07;;;-4.30;82.40;;;-2.04;57.32;98159.81;5013544;28;20439;-62
2023/12/03 05:45:43;;;;;;;11.03;6.80;;;-4.40;81.60;;;-2.08;57.06;98158.25;5013779;28;20045;-62
2023/12/03 05:48:10;;;;;;;12.33;6.93;;;-4.40;82.60;;;-2.09;57.13;98160.97;5013681;28;20053;-62
2023/12/03 05:50:38;;;;;;;14.47;7.57;;;-4.50;82.10;;;-2.12;57.14;98167.16;5011672;28;20167;-62
2023/12/03 05:53:07;;;;;;;11.90;8.00;;;-4.50;82.60;;;-2.16;57.09;98165.59;5013545;28;20052;-62
2023/12/03 05:55:34;;;;;;;19.37;7.60;;;-4.50;81.90;;;-2.24;56.96;98170.31;5012995;28;20045;-62
2023/12/03 05:58:02;;;;;;;14.27;7.37;;;-4.60;81.40;;;-2.32;56.94;98167.22;5013455;28;20049;-62
2023/12/03 06:00:29;;;;;;;12.57;7.13;;;-4.70;82.40;;;-2.38;57.46;98160.50;5013436;28;20053;-62
2023/12/03 06:02:59;;;;;;;14.57;7.33;;;-4.80;82.30;;;-2.41;57.12;98164.06;5011707;28;20061;-62
2023/12/03 06:05:27;;;;;;;13.13;6.93;;;-4.80;82.30;;;-2.41;57.55;98171.06;5013112;28;20522;-60
2023/12/03 06:07:55;;;;;;;13.47;6.70;;;-4.80;82.10;;;-2.42;57.09;98178.03;5013085;28;20046;-60
2023/12/03 06:10:23;;;;;;;14.93;8.57;;;-4.80;82.30;;;-2.45;57.34;98179.94;5005276;28;20388;-61
2023/12/03 06:12:51;;;;;;;14.57;8.37;;;-4.80;82.00;;;-2.49;57.23;98174.00;5013196;28;20037;-60
2023/12/03 06:15:18;;;;;;;15.60;7.60;;;-4.80;82.30;;;-2.50;57.49;98174.06;5012950;28;20038;-60
2023/12/03 06:17:46;;;;;;;13.87;7.37;;;-4.80;82.60;;;-2.50;57.46;98176.66;5013117;28;20045;-61
2023/12/03 06:20:14;;;;;;;12.80;7.77;;;-4.90;82.10;;;-2.50;57.29;98185.38;5012735;28;20053;-61
2023/12/03 06:22:42;;;;;;;16.33;9.23;;;-4.90;82.20;;;-2.51;57.51;98180.22;5013036;28;20058;-61
2023/12/03 06:25:09;;;;;;;19.23;9.13;;;-4.90;81.90;;;-2.52;57.28;98178.50;5012258;28;20045;-61
2023/12/03 06:27:37;;;;;;;29.30;12.63;;;-4.90;82.00;;;-2.52;57.56;98195.00;5012900;28;20049;-61
2023/12/03 06:30:06;;;;;;;110.97;37.87;;;-4.90;82.10;;;-2.52;57.62;98189.81;5012619;28;20042;-61
2023/12/03 06:32:34;;;;;;;54.53;22.07;;;-4.90;82.10;;;-2.51;57.42;98198.47;5012801;28;20045;-60
2023/12/03 06:35:04;;;;;;;76.90;25.43;;;-4.80;82.50;;;-2.49;57.32;98194.88;5011956;28;20495;-60
2023/12/03 06:37:31;;;;;;;46.07;18.27;;;-4.80;81.90;;;-2.47;57.35;98190.44;5011637;28;20030;-61
2023/12/03 06:39:59;;;;;;;95.30;36.10;;;-4.80;82.70;;;-2.49;57.25;98191.41;5011259;28;20049;-61
2023/12/03 06:42:27;;;;;;;106.27;36.70;;;-4.90;81.50;;;-2.52;57.46;98192.41;5012902;28;20050;-60
2023/12/03 06:44:54;;;;;;;77.83;28.47;;;-4.80;81.60;;;-2.53;57.32;98193.31;5012222;28;20329;-61
2023/12/03 06:47:22;;;;;;;79.07;30.63;;;-4.90;82.00;;;-2.54;57.21;98195.97;5012498;28;20447;-60
2023/12/03 06:49:50;;;;;;;81.57;34.37;;;-4.90;81.80;;;-2.57;57.34;98200.41;5010320;28;20041;-61
2023/12/03 06:52:17;;;;;;;42.93;18.07;;;-4.90;82.10;;;-2.57;57.43;98202.19;5011689;28;20045;-61
2023/12/03 06:54:45;;;;;;;62.47;25.90;;;-4.90;82.00;;;-2.59;57.41;98204.00;5011883;28;20053;-61
2023/12/03 06:57:12;;;;;;;58.97;24.60;;;-5.00;82.70;;;-2.62;57.32;98197.16;5011233;28;20499;-61
2023/12/03 06:59:40;;;;;;;35.20;18.10;;;-5.00;81.60;;;-2.68;57.39;98207.00;5012078;28;20046;-61
2023/12/03 07:02:08;;;;;;;34.90;16.40;;;-5.00;81.40;;;-2.75;57.34;98206.41;5012182;28;20052;-61
2023/12/03 07:04:35;;;;;;;23.63;13.00;;;-5.10;81.80;;;-2.83;57.23;98206.75;5010786;28;20042;-61
2023/12/03 07:07:04;;;;;;;20.23;10.23;;;-5.20;81.80;;;-2.84;57.36;98217.22;5012423;28;20104;-61
2023/12/03 07:09:32;;;;;;;14.53;9.33;;;-5.30;83.00;;;-2.85;57.27;98218.13;5011766;28;20388;-61
2023/12/03 07:12:07;;;;;;;13.43;7.10;;;-5.30;82.40;;;-2.86;57.45;98226.88;5012421;28;20046;-61
2023/12/03 07:14:35;;;;;;;16.53;8.53;;;-5.30;82.00;;;-2.86;57.42;98232.91;5010546;28;20041;-61
2023/12/03 07:17:03;;;;;;;17.67;8.93;;;-5.30;82.20;;;-2.88;57.14;98216.50;5011949;28;20442;-62
2023/12/03 07:19:31;;;;;;;13.10;7.80;;;-5.20;81.90;;;-2.85;57.51;98224.19;5010677;28;20050;-61
2023/12/03 07:21:59;;;;;;;12.60;7.40;;;-5.20;82.00;;;-2.84;57.48;98217.22;5011457;28;20045;-61
2023/12/03 07:24:26;;;;;;;16.97;8.10;;;-5.20;82.00;;;-2.81;57.98;98217.06;5011448;28;20053;-61
2023/12/03 07:26:54;;;;;;;16.30;8.60;;;-5.10;82.30;;;-2.79;57.65;98223.09;5011624;28;20041;-61
2023/12/03 07:29:22;;;;;;;18.53;8.50;;;-5.10;82.00;;;-2.77;57.69;98223.88;5011572;28;20498;-61
2023/12/03 07:31:50;;;;;;;14.53;8.07;;;-5.00;81.50;;;-2.74;57.53;98234.16;5011653;28;20049;-61
2023/12/03 07:34:18;;;;;;;14.83;7.70;;;-5.00;81.80;;;-2.73;57.72;98240.22;5011511;28;20046;-61
2023/12/03 07:36:46;;;;;;;14.03;7.30;;;-5.00;81.10;;;-2.76;57.46;98238.59;5011201;28;20549;-62
2023/12/03 07:39:13;;;;;;;16.23;6.80;;;-5.00;81.30;;;-2.74;57.61;98241.16;5011508;28;20056;-61
2023/12/03 07:41:52;;;;;;;13.27;7.30;;;-5.00;82.10;;;-2.72;57.66;98247.97;5011536;28;20049;-62
2023/12/03 07:44:21;;;;;;;15.03;7.07;;;-4.90;81.80;;;-2.70;57.64;98245.31;5009392;28;20061;-61
2023/12/03 07:46:49;;;;;;;15.03;7.50;;;-4.90;81.40;;;-2.71;57.44;98252.28;5009594;28;20046;-61
2023/12/03 07:49:16;;;;;;;13.17;7.50;;;-5.00;80.90;;;-2.72;57.71;98255.78;5010456;28;20053;-61
2023/12/03 07:51:47;;;;;;;14.17;7.97;;;-5.00;81.30;;;-2.71;57.75;98248.84;5010277;28;20491;-61
2023/12/03 07:54:16;;;;;;;13.93;6.97;;;-5.00;81.50;;;-2.74;57.58;98256.78;5010438;28;20040;-62
2023/12/03 07:56:44;;;;;;;18.03;9.00;;;-5.00;81.40;;;-2.77;57.65;98253.41;4992192;28;20114;-62
2023/12/03 07:59:11;;;;;;;18.10;8.20;;;-5.00;81.70;;;-2.73;57.83;98261.94;5009273;28;20041;-62
2023/12/03 08:01:39;;;;;;;19.63;9.90;;;-5.00;81.80;;;-2.72;58.00;98253.19;5010319;28;20046;-61
2023/12/03 08:04:07;;;;;;;16.67;8.43;;;-5.00;82.00;;;-2.70;57.85;98264.41;5010300;28;20052;-62
2023/12/03 08:06:35;;;;;;;15.33;8.60;;;-4.90;82.00;;;-2.68;57.86;98259.13;5009843;28;20046;-61
2023/12/03 08:09:03;;;;;;;16.20;8.03;;;-5.00;81.70;;;-2.66;57.86;98255.53;5010204;28;20049;-61
2023/12/03 08:11:30;;;;;;;15.00;8.43;;;-4.90;82.20;;;-2.64;57.76;98261.53;5009644;28;20033;-61
2023/12/03 08:13:58;;;;;;;14.63;8.07;;;-4.90;82.30;;;-2.61;57.88;98261.41;5010200;28;20052;-61
2023/12/03 08:16:26;;;;;;;13.87;8.33;;;-4.90;82.50;;;-2.57;58.06;98259.53;5009938;28;20034;-61
2023/12/03 08:18:53;;;;;;;16.50;9.70;;;-4.80;82.80;;;-2.57;57.91;98262.97;5009046;28;20049;-61
2023/12/03 08:21:21;;;;;;;15.83;7.20;;;-4.80;83.20;;;-2.54;58.17;98261.16;5009934;28;20042;-61
2023/12/03 08:23:49;;;;;;;14.07;7.53;;;-4.80;82.20;;;-2.54;57.74;98264.59;5009588;28;20045;-61
2023/12/03 08:26:17;;;;;;;13.80;8.07;;;-4.80;82.30;;;-2.52;57.78;98267.16;5009694;28;20050;-61
2023/12/03 08:28:44;;;;;;;15.07;7.50;;;-4.70;83.00;;;-2.49;58.14;98267.88;5008904;28;20045;-61
2023/12/03 08:31:12;;;;;;;16.53;8.87;;;-4.70;83.10;;;-2.45;58.40;98266.81;5009918;28;20034;-61
2023/12/03 08:33:44;;;;;;;19.17;8.03;;;-4.60;83.30;;;-2.43;58.33;98265.00;5011774;28;20427;-61
2023/12/03 08:36:18;;;;;;;13.87;7.67;;;-4.60;82.70;;;-2.40;58.35;98259.66;5013256;28;20057;-61
2023/12/03 08:38:46;;;;;;;14.48;7.57;;;-4.60;82.70;;;-2.38;58.45;98268.28;5013696;28;20042;-61
2023/12/03 08:41:14;;;;;;;11.03;7.83;;;-4.50;82.70;;;-2.37;57.94;98269.09;5012848;28;20458;-61
2023/12/03 08:43:42;;;;;;;15.73;8.63;;;-4.50;82.80;;;-2.35;58.47;98267.28;5013718;28;20049;-61
2023/12/03 08:46:09;;;;;;;13.63;8.30;;;-4.40;82.70;;;-2.31;58.59;98271.44;5013529;28;20062;-61
2023/12/03 08:48:37;;;;;;;16.13;9.10;;;-4.40;82.60;;;-2.27;58.53;98267.81;5013458;28;20065;-61
2023/12/03 08:51:06;;;;;;;12.80;8.20;;;-4.40;82.10;;;-2.25;58.34;98275.56;5013547;28;20078;-61
2023/12/03 08:53:33;;;;;;;13.60;7.80;;;-4.30;82.60;;;-2.23;58.41;98276.34;5013460;28;20064;-60
2023/12/03 08:56:01;;;;;;;17.03;8.93;;;-4.30;82.50;;;-2.21;58.61;98277.13;5012251;28;20068;-60
2023/12/03 08:58:28;;;;;;;14.00;7.20;;;-4.30;82.20;;;-2.18;58.57;98270.00;5013604;28;20049;-60
2023/12/03 09:00:56;;;;;;;16.97;8.73;;;-4.30;82.70;;;-2.08;58.59;98264.41;5012535;28;20062;-60
2023/12/03 09:03:24;;;;;;;13.67;8.67;;;-4.20;82.90;;;-2.03;58.52;98276.31;5012748;28;20054;-60
2023/12/03 09:05:51;;;;;;;15.10;7.33;;;-4.10;82.40;;;-1.97;58.73;98275.22;5011863;28;20046;-60
2023/12/03 09:08:19;;;;;;;15.00;7.57;;;-4.00;81.80;;;-1.91;58.61;98276.72;5013343;28;20396;-60
2023/12/03 09:10:47;;;;;;;15.07;7.77;;;-3.90;81.30;;;-1.87;58.64;98270.44;5012260;28;20049;-60
2023/12/03 09:13:15;;;;;;;13.80;7.80;;;-3.90;81.00;;;-1.82;58.18;98271.09;5012897;28;20046;-60
2023/12/03 09:15:42;;;;;;;14.07;7.80;;;-3.80;80.60;;;-1.82;58.40;98269.31;5012422;28;20052;-61
2023/12/03 09:18:10;;;;;;;15.47;8.77;;;-3.80;80.10;;;-1.81;58.62;98257.09;5013268;28;20049;-60
2023/12/03 09:20:39;;;;;;;13.73;7.77;;;-3.80;80.10;;;-1.76;58.41;98254.28;5005247;28;20147;-61
2023/12/03 09:23:09;;;;;;;14.00;7.20;;;-3.70;80.20;;;-1.77;58.42;98253.44;5013185;28;20049;-61
2023/12/03 09:25:37;;;;;;;15.03;8.13;;;-3.70;79.70;;;-1.77;58.17;98252.59;5012680;28;20050;-61
2023/12/03 09:28:04;;;;;;;15.40;8.83;;;-3.60;79.60;;;-1.79;58.22;98257.88;5013361;28;20141;-60
2023/12/03 09:30:32;;;;;;;14.03;8.33;;;-3.50;79.60;;;-1.72;58.88;98261.91;5014224;28;20068;-62
2023/12/03 09:33:00;;;;;;;12.23;7.83;;;-3.50;79.30;;;-1.68;57.98;98263.47;5013906;28;20423;-60
2023/12/03 09:35:29;;;;;;;14.97;8.37;;;-3.40;79.10;;;-1.65;58.23;98262.47;5013901;28;20061;-60
2023/12/03 09:37:57;;;;;;;15.47;8.47;;;-3.40;79.70;;;-1.59;58.73;98263.06;5013566;28;20491;-60
2023/12/03 09:40:25;;;;;;;13.60;8.10;;;-3.40;79.50;;;-1.51;58.27;98257.47;5013515;28;20053;-60
2023/12/03 09:42:56;;;;;;;13.47;8.50;;;-3.40;79.50;;;-1.47;58.13;98260.81;5012458;28;20364;-60
2023/12/03 09:45:27;;;;;;;54.43;18.93;;;-3.30;79.30;;;-1.45;58.54;98262.41;5012943;28;20061;-60
2023/12/03 09:48:01;;;;;;;24.83;11.83;;;-3.30;78.80;;;-1.39;58.17;98262.13;5013542;28;20415;-60
2023/12/03 09:50:34;;;;;;;;;;;-3.30;78.50;;;-1.36;58.51;98263.72;5013861;28;20049;-60
2023/12/03 09:53:04;;;;;;;17.77;9.27;;;-3.30;78.70;;;-1.35;58.12;98255.00;5013515;28;19922;-60
2023/12/03 09:55:34;;;;;;;13.87;8.47;;;-3.30;79.60;;;-1.34;58.49;98256.66;5012976;28;20057;-60
2023/12/03 09:58:02;;;;;;;17.80;8.93;;;-3.20;79.60;;;-1.27;58.57;98262.47;5012031;28;20046;-61
2023/12/03 10:00:31;;;;;;;17.57;8.90;;;-3.20;79.20;;;-1.20;58.11;98269.09;5012049;28;20145;-60
2023/12/03 10:02:59;;;;;;;15.53;8.63;;;-3.10;79.70;;;-1.17;58.57;98262.88;5011326;28;20054;-60
2023/12/03 10:05:27;;;;;;;16.57;8.80;;;-3.00;79.20;;;-1.17;58.06;98266.34;5012504;28;20065;-60
2023/12/03 10:07:55;;;;;;;16.97;9.13;;;-2.90;78.70;;;-1.13;58.59;98265.25;5007444;28;20057;-60
2023/12/03 10:10:38;;;;;;;16.23;9.43;;;-2.90;78.30;;;-1.06;58.03;98266.66;5002251;28;20054;-60
2023/12/03 10:13:13;;;;;;;14.87;8.90;;;-2.90;78.60;;;-1.01;58.76;98269.91;5004566;28;20334;-60
2023/12/03 10:15:41;;;;;;;15.50;9.07;;;-2.90;78.40;;;-1.01;58.29;98269.91;5001374;28;20054;-60